Terminal Aerodrome Forecast
Issued by NWS

Home | Current Version | Previous Version | Text Only | Print | Product List | Glossary On
Versions: 1 2 3 4 5 6 7 8 9 10 11 12 13 14 15 16 17 18 19 20 21 22 23 24
000
FTUS43 KMQT 241136
TAFCMX
TAF
KCMX 241136Z 2412/2512 04006KT P6SM SCT025 OVC050
     FM241400 06007KT P6SM OVC025
     FM241600 08009KT P6SM BKN025
     FM241800 08009KT P6SM SCT030
     FM250600 06005KT P6SM SCT020=

USA.gov is the U.S. government's official web portal to all federal, state and local government web resources and services.